Time;durP1;ratioP1;P1;durP2;ratioP2;P2;SDS_P1;SDS_P2;PMS_P1;PMS_P2;Temp;Humidity;BMP_temperature;BMP_pressure;BME280_temperature;BME280_humidity;BME280_pressure;Samples;Min_cycle;Max_cycle;Signal;HPM_P1;HPM_P2
2023/06/11 00:01:26;;;;;;;9.20;6.90;;;;;;;24.73;45.53;101360.31;5113194;28;20477;-67
2023/06/11 00:03:52;;;;;;;8.82;6.80;;;;;;;24.71;45.92;101349.56;5094837;28;20066;-66
2023/06/11 00:06:22;;;;;;;9.43;7.25;;;;;;;24.65;46.02;101354.34;5113290;28;20047;-66
2023/06/11 00:08:48;;;;;;;11.98;6.90;;;;;;;24.61;46.27;101350.88;5113337;28;20411;-66
2023/06/11 00:11:13;;;;;;;11.20;7.20;;;;;;;24.66;46.48;101356.97;5113266;28;20026;-65
2023/06/11 00:13:39;;;;;;;12.60;6.90;;;;;;;24.60;46.42;101356.34;5113142;28;20486;-66
2023/06/11 00:16:06;;;;;;;12.93;7.05;;;;;;;24.40;46.91;101349.00;5113426;28;20024;-67
2023/06/11 00:18:31;;;;;;;13.82;7.00;;;;;;;24.49;46.68;101346.81;5113074;28;20072;-67
2023/06/11 00:20:59;;;;;;;11.25;6.90;;;;;;;24.54;46.87;101340.34;5095062;28;20023;-66
2023/06/11 00:23:25;;;;;;;12.35;7.78;;;;;;;24.38;47.11;101343.66;5112796;28;20040;-66
2023/06/11 00:25:52;;;;;;;12.77;7.50;;;;;;;24.30;47.47;101340.34;5113198;28;20082;-66
2023/06/11 00:28:18;;;;;;;11.93;7.50;;;;;;;24.24;48.02;101346.88;5113280;28;20437;-66
2023/06/11 00:30:43;;;;;;;12.95;7.95;;;;;;;24.22;47.94;101340.63;5113035;28;20533;-66
2023/06/11 00:33:09;;;;;;;10.20;7.95;;;;;;;24.26;47.49;101344.09;5112947;28;20028;-66
2023/06/11 00:35:36;;;;;;;10.13;8.25;;;;;;;24.26;47.82;101335.13;5112960;28;20421;-66
2023/06/11 00:38:02;;;;;;;12.68;8.10;;;;;;;24.16;47.71;101340.88;5112918;28;20107;-66
2023/06/11 00:40:27;;;;;;;12.38;7.88;;;;;;;24.13;47.64;101338.28;5112968;28;20149;-66
2023/06/11 00:42:54;;;;;;;11.40;7.88;;;;;;;24.06;48.03;101338.56;5112883;28;20035;-66
2023/06/11 00:45:22;;;;;;;12.05;7.78;;;;;;;23.95;48.38;101334.47;5112968;28;20028;-66
2023/06/11 00:47:47;;;;;;;10.75;7.70;;;;;;;23.98;48.63;101342.47;5113057;28;20164;-66
2023/06/11 00:50:15;;;;;;;12.00;7.72;;;;;;;23.85;48.90;101341.13;5115471;28;20470;-66
2023/06/11 00:52:41;;;;;;;11.65;8.10;;;;;;;23.80;49.12;101344.94;5116634;28;20023;-66
2023/06/11 00:55:07;;;;;;;10.63;8.15;;;;;;;23.73;49.81;101338.91;5116534;28;20496;-66
2023/06/11 00:57:35;;;;;;;13.05;7.93;;;;;;;23.62;50.30;101341.94;5116463;28;20541;-65
2023/06/11 01:00:01;;;;;;;12.00;8.07;;;;;;;23.72;50.03;101345.19;5116818;28;20038;-66
2023/06/11 01:02:33;;;;;;;9.98;8.20;;;;;;;23.60;50.31;101356.44;5116403;28;20451;-69
2023/06/11 01:05:00;;;;;;;13.13;7.97;;;;;;;23.70;50.00;101344.41;5116397;28;20468;-66
2023/06/11 01:07:30;;;;;;;13.63;8.13;;;;;;;23.59;49.76;101346.53;5116247;28;20548;-66
2023/06/11 01:09:56;;;;;;;14.93;8.43;;;;;;;23.63;50.03;101345.50;5116247;28;20114;-67
2023/06/11 01:12:22;;;;;;;12.70;8.07;;;;;;;23.56;50.54;101354.78;5116015;28;20392;-66
2023/06/11 01:14:47;;;;;;;11.20;8.43;;;;;;;23.49;50.31;101352.28;5116201;28;20024;-66
2023/06/11 01:17:19;;;;;;;15.80;8.18;;;;;;;23.52;50.29;101353.13;5115994;28;20023;-66
2023/06/11 01:20:06;;;;;;;;;;;;;;;23.67;48.19;101350.78;5116484;28;20028;-67
2023/06/11 01:23:09;;;;;;;12.45;8.38;;;;;;;23.55;49.07;101347.59;5097785;28;19907;-67
2023/06/11 01:26:16;;;;;;;14.98;9.25;;;;;;;23.58;49.41;101348.38;5116276;28;20031;-66
2023/06/11 01:28:46;;;;;;;13.02;8.40;;;;;;;23.43;50.71;101352.50;5081556;28;20027;-67
2023/06/11 01:31:14;;;;;;;12.40;8.85;;;;;;;23.43;50.70;101354.31;5116130;28;20027;-65
2023/06/11 01:33:42;;;;;;;13.38;8.55;;;;;;;23.40;50.64;101363.38;5115895;28;20016;-65
2023/06/11 01:36:07;;;;;;;17.00;9.18;;;;;;;23.34;51.12;101352.81;5115715;28;20016;-66
2023/06/11 01:38:41;;;;;;;12.68;8.73;;;;;;;23.21;51.29;101360.44;5115675;28;20077;-66
2023/06/11 01:41:06;;;;;;;10.38;8.52;;;;;;;23.21;50.99;101354.13;5115882;28;20076;-66
2023/06/11 01:43:32;;;;;;;14.43;9.02;;;;;;;23.10;51.84;101353.63;5115621;28;20047;-67
2023/06/11 01:45:58;;;;;;;13.60;8.70;;;;;;;23.08;51.95;101361.75;5115847;28;20381;-66
2023/06/11 01:48:24;;;;;;;13.88;8.85;;;;;;;23.02;52.25;101356.56;5115761;28;20032;-66
2023/06/11 01:50:50;;;;;;;12.02;8.98;;;;;;;23.08;51.69;101358.19;5115323;28;20440;-67
2023/06/11 01:53:16;;;;;;;10.68;9.02;;;;;;;23.04;52.35;101354.72;5115394;28;20107;-66
2023/06/11 01:55:42;;;;;;;11.57;9.13;;;;;;;22.85;52.48;101350.81;5115438;28;20059;-67
2023/06/11 01:58:08;;;;;;;16.85;9.40;;;;;;;22.78;53.16;101357.31;5115307;28;20080;-68
2023/06/11 02:00:34;;;;;;;14.60;9.50;;;;;;;22.83;52.89;101353.56;5114425;28;20060;-66
2023/06/11 02:03:01;;;;;;;13.35;9.35;;;;;;;22.78;52.80;101354.63;5115170;28;20610;-65
2023/06/11 02:05:27;;;;;;;13.10;9.63;;;;;;;22.63;53.63;101350.63;5115357;28;20042;-66
2023/06/11 02:07:52;;;;;;;11.60;8.95;;;;;;;22.65;53.79;101356.81;5115376;28;20118;-65
2023/06/11 02:10:18;;;;;;;13.80;9.52;;;;;;;22.55;53.64;101353.53;5114784;28;20162;-65
2023/06/11 02:12:43;;;;;;;13.73;9.10;;;;;;;22.54;54.28;101359.88;5115000;28;20027;-66
2023/06/11 02:15:09;;;;;;;16.67;9.60;;;;;;;22.43;54.30;101354.78;5115034;28;20024;-66
2023/06/11 02:17:34;;;;;;;13.75;9.27;;;;;;;22.44;54.42;101355.66;5114860;28;20110;-69
2023/06/11 02:20:00;;;;;;;16.45;9.27;;;;;;;22.45;54.22;101354.75;5115083;28;20114;-66
2023/06/11 02:22:25;;;;;;;12.60;9.77;;;;;;;22.37;54.18;101354.13;5114910;28;20038;-67
2023/06/11 02:24:51;;;;;;;13.70;9.68;;;;;;;22.40;54.42;101354.91;5114491;28;20055;-66
2023/06/11 02:27:16;;;;;;;11.68;9.68;;;;;;;22.38;54.42;101354.06;5114586;28;20035;-66
2023/06/11 02:29:42;;;;;;;12.95;9.60;;;;;;;22.46;54.50;101356.53;5114749;28;20024;-65
2023/06/11 02:32:08;;;;;;;12.75;9.40;;;;;;;22.44;54.51;101352.97;5114925;28;20031;-66
2023/06/11 02:34:33;;;;;;;12.82;10.00;;;;;;;22.45;54.01;101350.25;5114933;28;20020;-66
2023/06/11 02:36:58;;;;;;;14.57;9.75;;;;;;;22.48;54.07;101349.25;5114666;28;20027;-66
2023/06/11 02:39:24;;;;;;;13.52;9.48;;;;;;;22.47;54.45;101358.28;5114559;28;20465;-67
2023/06/11 02:41:49;;;;;;;12.80;9.23;;;;;;;22.45;53.91;101357.47;5114264;28;20098;-66
2023/06/11 02:44:15;;;;;;;12.77;9.68;;;;;;;22.46;54.47;101348.44;5114258;28;20073;-66
2023/06/11 02:46:40;;;;;;;12.13;9.02;;;;;;;22.45;54.01;101350.25;5114508;28;20012;-66
2023/06/11 02:49:06;;;;;;;14.20;10.00;;;;;;;22.42;54.01;101347.66;5096115;28;20042;-66
2023/06/11 02:51:31;;;;;;;12.45;9.95;;;;;;;22.36;54.68;101355.94;5114486;28;20019;-66
2023/06/11 02:53:57;;;;;;;14.75;9.88;;;;;;;22.35;54.54;101355.94;5114421;28;20020;-65
2023/06/11 02:56:22;;;;;;;11.20;8.95;;;;;;;22.40;54.55;101360.28;5095879;28;20469;-67
2023/06/11 02:58:49;;;;;;;12.90;10.60;;;;;;;22.38;54.46;101359.44;5114017;28;20054;-66
2023/06/11 03:01:14;;;;;;;12.05;9.38;;;;;;;22.33;55.08;101357.81;5114333;28;20023;-66
2023/06/11 03:03:40;;;;;;;12.00;9.32;;;;;;;22.32;55.25;101356.94;5114043;28;20015;-67
2023/06/11 03:06:05;;;;;;;11.80;9.98;;;;;;;22.38;54.62;101358.56;5095787;28;20047;-66
2023/06/11 03:08:31;;;;;;;14.27;10.13;;;;;;;22.29;54.75;101366.91;5113983;28;20028;-67
2023/06/11 03:10:56;;;;;;;11.20;9.55;;;;;;;22.29;55.07;101362.41;5114022;28;20031;-66
2023/06/11 03:13:21;;;;;;;12.18;10.23;;;;;;;22.12;55.62;101351.22;5113828;28;20526;-65
2023/06/11 03:15:47;;;;;;;18.02;10.05;;;;;;;22.08;55.64;101363.88;5113853;28;20111;-67
2023/06/11 03:18:12;;;;;;;12.55;9.65;;;;;;;21.99;55.90;101361.47;5114063;28;20027;-67
2023/06/11 03:20:38;;;;;;;13.68;9.82;;;;;;;21.94;56.27;101356.22;5114020;28;20045;-66
2023/06/11 03:23:03;;;;;;;14.55;9.90;;;;;;;22.00;56.41;101360.53;5113721;28;20127;-67
2023/06/11 03:25:28;;;;;;;14.05;9.88;;;;;;;21.98;56.38;101367.78;5113766;28;20095;-66
2023/06/11 03:27:54;;;;;;;16.10;10.52;;;;;;;21.95;56.37;101360.66;5113618;28;20019;-67
2023/06/11 03:30:19;;;;;;;14.52;10.38;;;;;;;21.91;56.50;101363.47;5113924;28;20059;-66
2023/06/11 03:32:45;;;;;;;14.25;9.90;;;;;;;21.90;56.34;101356.34;5113539;28;20076;-66
2023/06/11 03:35:10;;;;;;;14.52;10.52;;;;;;;21.90;56.70;101370.69;5113588;28;20027;-66
2023/06/11 03:37:35;;;;;;;12.75;10.48;;;;;;;21.90;56.81;101367.09;5113379;28;20031;-66
2023/06/11 03:40:01;;;;;;;14.07;10.40;;;;;;;21.84;57.03;101368.16;5113518;28;20103;-66
2023/06/11 03:42:28;;;;;;;15.10;10.77;;;;;;;21.79;56.80;101367.38;5113308;28;20027;-66
2023/06/11 03:44:54;;;;;;;15.10;10.43;;;;;;;21.66;57.42;101365.94;5113821;28;20047;-66
2023/06/11 03:47:20;;;;;;;15.27;10.93;;;;;;;21.74;57.68;101369.31;5113662;28;20027;-67
2023/06/11 03:49:45;;;;;;;12.20;10.35;;;;;;;21.75;57.59;101371.09;5113259;28;20027;-65
2023/06/11 03:52:11;;;;;;;22.00;11.13;;;;;;;21.70;57.45;101368.53;5113654;28;20107;-67
2023/06/11 03:54:36;;;;;;;17.55;10.68;;;;;;;21.69;57.69;101376.63;5113614;28;20050;-66
2023/06/11 03:57:01;;;;;;;16.58;11.73;;;;;;;21.59;58.19;101375.13;5113290;28;20032;-66
2023/06/11 03:59:27;;;;;;;18.95;12.07;;;;;;;21.64;58.02;101376.75;5095394;28;20476;-66
2023/06/11 04:01:52;;;;;;;13.85;12.07;;;;;;;21.65;58.13;101377.66;5113336;28;20091;-66
2023/06/11 04:04:18;;;;;;;15.73;11.95;;;;;;;21.68;58.16;101380.25;5113309;28;20023;-65
2023/06/11 04:06:43;;;;;;;14.45;11.38;;;;;;;21.70;57.93;101378.41;5113241;28;20076;-66
2023/06/11 04:09:09;;;;;;;16.13;11.75;;;;;;;21.69;58.04;101382.03;5113158;28;20024;-66
2023/06/11 04:11:34;;;;;;;16.90;11.45;;;;;;;21.70;58.08;101375.72;5113326;28;20414;-66
2023/06/11 04:14:00;;;;;;;20.15;11.02;;;;;;;21.69;58.33;101377.53;5113000;28;20036;-66
2023/06/11 04:16:26;;;;;;;15.90;10.80;;;;;;;21.67;58.38;101379.38;5113359;28;20062;-66
2023/06/11 04:18:52;;;;;;;13.95;11.30;;;;;;;21.65;58.96;101373.16;5113315;28;20167;-66
2023/06/11 04:21:17;;;;;;;15.82;11.35;;;;;;;21.68;58.67;101380.25;5113267;28;20488;-67
2023/06/11 04:23:42;;;;;;;13.85;11.38;;;;;;;21.69;58.71;101377.53;5113130;28;20104;-66
2023/06/11 04:26:08;;;;;;;15.23;11.52;;;;;;;21.72;58.69;101390.03;5117086;28;20015;-66
2023/06/11 04:28:37;;;;;;;15.68;11.70;;;;;;;21.70;58.92;101386.47;5117009;28;20433;-66
2023/06/11 04:31:04;;;;;;;17.98;11.95;;;;;;;21.66;58.89;101382.09;5117038;28;20481;-66
2023/06/11 04:33:33;;;;;;;14.80;12.30;;;;;;;21.67;59.23;101386.53;5116955;28;20502;-66
2023/06/11 04:36:07;;;;;;;20.10;12.30;;;;;;;21.63;59.09;101385.78;5117046;28;20027;-66
2023/06/11 04:38:36;;;;;;;16.30;11.88;;;;;;;21.72;59.13;101390.03;5116829;28;20028;-67
2023/06/11 04:41:11;;;;;;;16.27;12.30;;;;;;;21.72;59.11;101393.59;5116883;28;20019;-66
2023/06/11 04:43:36;;;;;;;13.70;12.02;;;;;;;21.66;59.50;101382.97;5116749;28;20388;-66
2023/06/11 04:46:03;;;;;;;16.60;13.07;;;;;;;21.54;60.07;101379.72;5098451;28;20026;-66
2023/06/11 04:48:31;;;;;;;16.70;12.13;;;;;;;21.56;60.25;101386.84;5116714;28;20024;-66
2023/06/11 04:50:59;;;;;;;23.67;12.98;;;;;;;21.62;59.78;101385.78;5116651;28;20039;-66
2023/06/11 04:53:27;;;;;;;17.55;12.50;;;;;;;21.72;59.73;101388.22;5116529;28;20427;-66
2023/06/11 04:55:57;;;;;;;15.82;12.38;;;;;;;21.76;60.06;101383.63;5116527;28;20032;-67
2023/06/11 04:58:23;;;;;;;14.60;12.23;;;;;;;21.84;59.73;101388.78;5116185;28;20042;-66
2023/06/11 05:00:50;;;;;;;18.15;12.90;;;;;;;21.78;59.80;101391.66;5098378;28;20140;-67
2023/06/11 05:03:18;;;;;;;17.17;12.77;;;;;;;21.86;59.90;101395.91;5116305;28;20623;-66
2023/06/11 05:05:51;;;;;;;16.85;12.80;;;;;;;21.92;59.25;101394.84;5116152;28;20035;-66
2023/06/11 05:08:25;;;;;;;17.02;12.98;;;;;;;22.02;59.18;101401.75;5116254;28;20069;-67
2023/06/11 05:10:54;;;;;;;17.88;12.98;;;;;;;22.12;58.98;101400.59;5116384;28;20061;-66
2023/06/11 05:13:26;;;;;;;19.45;12.52;;;;;;;22.27;58.34;101396.59;5116195;28;20354;-66
2023/06/11 05:15:56;;;;;;;18.25;12.70;;;;;;;22.34;58.14;101399.97;5116439;28;20027;-66
2023/06/11 05:18:23;;;;;;;16.95;12.23;;;;;;;22.44;58.05;101401.44;5116605;28;20422;-67
2023/06/11 05:20:49;;;;;;;19.02;13.05;;;;;;;22.42;58.03;101409.59;5098213;28;20130;-65
2023/06/11 05:23:16;;;;;;;18.30;12.80;;;;;;;22.56;57.83;101402.91;5115892;28;20441;-65
2023/06/11 05:25:47;;;;;;;14.77;12.10;;;;;;;22.63;57.46;101397.28;5115905;28;20023;-65
2023/06/11 05:28:17;;;;;;;15.00;12.02;;;;;;;22.72;56.91;101404.22;5116291;28;20051;-65
2023/06/11 05:30:45;;;;;;;16.02;12.07;;;;;;;22.79;57.09;101400.41;5115865;28;20023;-67
2023/06/11 05:33:11;;;;;;;15.57;11.95;;;;;;;22.87;56.53;101397.44;5115835;28;20427;-66
2023/06/11 05:35:37;;;;;;;16.85;11.93;;;;;;;22.91;56.66;101393.75;5114359;28;20500;-66
2023/06/11 05:38:03;;;;;;;17.15;12.18;;;;;;;22.93;56.20;101397.31;5115661;28;20023;-66
2023/06/11 05:40:30;;;;;;;14.05;11.65;;;;;;;22.96;56.24;101395.41;5115436;28;20081;-66
2023/06/11 05:42:56;;;;;;;15.88;12.27;;;;;;;22.98;56.02;101404.31;5115765;28;20111;-66
2023/06/11 05:45:21;;;;;;;15.55;12.27;;;;;;;23.12;55.50;101401.16;5115853;28;20106;-67
2023/06/11 05:47:46;;;;;;;14.25;11.85;;;;;;;23.26;55.62;101405.25;5115553;28;20456;-66
2023/06/11 05:50:12;;;;;;;15.93;11.68;;;;;;;23.39;54.57;101404.78;5115676;28;20022;-67
2023/06/11 05:52:37;;;;;;;13.30;11.45;;;;;;;23.52;54.14;101405.25;5097130;28;20035;-65
2023/06/11 05:55:04;;;;;;;17.77;12.32;;;;;;;23.65;54.47;101398.53;5115424;28;20111;-66
2023/06/11 05:57:29;;;;;;;15.93;11.48;;;;;;;23.76;53.73;101395.44;5097008;28;20038;-66
2023/06/11 05:59:55;;;;;;;13.60;12.18;;;;;;;23.94;53.75;101402.91;5115358;28;20114;-66
2023/06/11 06:02:21;;;;;;;12.73;11.30;;;;;;;24.09;53.03;101404.16;5115261;28;20028;-67
2023/06/11 06:04:48;;;;;;;16.00;11.38;;;;;;;24.19;52.87;101410.97;5115107;28;20028;-66
2023/06/11 06:07:14;;;;;;;14.10;10.68;;;;;;;24.21;52.65;101410.94;5115389;28;20024;-66
2023/06/11 06:09:40;;;;;;;15.70;11.00;;;;;;;24.30;52.88;101415.09;5115031;28;20027;-67
2023/06/11 06:12:06;;;;;;;13.95;10.63;;;;;;;24.59;52.29;101414.91;5114883;28;20039;-66
2023/06/11 06:14:32;;;;;;;15.82;10.73;;;;;;;24.71;52.06;101403.63;5115044;28;20029;-66
2023/06/11 06:16:58;;;;;;;14.10;10.15;;;;;;;24.91;51.10;101413.63;5114997;28;20027;-65
2023/06/11 06:19:23;;;;;;;11.23;10.05;;;;;;;25.03;50.85;101412.28;5114851;28;20055;-66
2023/06/11 06:21:48;;;;;;;16.77;9.57;;;;;;;25.14;50.03;101412.75;5114937;28;20101;-66
2023/06/11 06:24:14;;;;;;;13.00;9.50;;;;;;;25.20;51.01;101404.38;5114748;28;20051;-66
2023/06/11 06:26:40;;;;;;;10.85;9.05;;;;;;;25.39;49.85;101415.31;5114746;28;20064;-67
2023/06/11 06:29:12;;;;;;;15.80;8.60;;;;;;;25.57;49.55;101408.25;5114821;28;20155;-66
2023/06/11 06:31:38;;;;;;;;;;;;;;;25.83;49.75;101417.13;5115105;28;20131;-66
2023/06/11 06:34:04;;;;;;;12.45;8.57;;;;;;;25.91;48.58;101415.84;5114682;28;20022;-65
2023/06/11 06:36:29;;;;;;;10.45;8.35;;;;;;;26.03;47.54;101418.94;5114567;28;20043;-66
2023/06/11 06:38:55;;;;;;;10.95;8.63;;;;;;;26.13;47.41;101421.16;5114437;28;20540;-67
2023/06/11 06:41:20;;;;;;;9.45;8.27;;;;;;;26.18;47.95;101423.66;5114314;28;20027;-66
2023/06/11 06:43:46;;;;;;;9.98;8.00;;;;;;;26.26;47.69;101426.03;5114492;28;20101;-66
2023/06/11 06:46:12;;;;;;;10.73;7.78;;;;;;;26.44;47.44;101425.22;5114416;28;20026;-66
2023/06/11 06:48:37;;;;;;;12.38;8.18;;;;;;;26.62;46.81;101420.75;5114197;28;20032;-66
2023/06/11 06:51:03;;;;;;;9.68;7.57;;;;;;;26.71;46.58;101420.31;5114187;28;20028;-66
2023/06/11 06:53:28;;;;;;;9.98;7.50;;;;;;;26.91;45.89;101424.81;5114246;28;20057;-66
2023/06/11 06:55:54;;;;;;;8.85;7.88;;;;;;;27.04;45.72;101431.38;5114159;28;20031;-66
2023/06/11 06:58:19;;;;;;;12.68;7.60;;;;;;;27.21;45.29;101426.03;5113971;28;20050;-65
2023/06/11 07:00:45;;;;;;;13.02;7.88;;;;;;;27.31;44.88;101422.88;5114328;28;20123;-66
2023/06/11 07:03:14;;;;;;;11.95;7.20;;;;;;;27.45;44.54;101418.53;5114319;28;20031;-66
2023/06/11 07:05:41;;;;;;;12.68;7.10;;;;;;;27.53;44.40;101415.41;5114123;28;20027;-66
2023/06/11 07:08:08;;;;;;;9.02;7.40;;;;;;;27.67;43.30;101423.72;5114000;28;20031;-66
2023/06/11 07:10:34;;;;;;;9.13;7.10;;;;;;;27.57;44.11;101424.25;5114242;28;20028;-67
2023/06/11 07:13:00;;;;;;;11.60;7.20;;;;;;;27.71;43.95;101419.91;5114173;28;20346;-67
2023/06/11 07:15:25;;;;;;;10.18;7.40;;;;;;;27.83;44.37;101422.94;5114060;28;20440;-66
2023/06/11 07:17:51;;;;;;;9.70;7.20;;;;;;;27.83;42.45;101425.66;5113990;28;20141;-66
2023/06/11 07:20:16;;;;;;;9.77;7.03;;;;;;;27.92;42.43;101431.53;5113671;28;20114;-65
2023/06/11 07:22:41;;;;;;;9.63;6.93;;;;;;;28.10;43.49;101423.34;5113723;28;20081;-66
2023/06/11 07:25:07;;;;;;;10.63;7.30;;;;;;;28.11;42.69;101425.97;5113528;28;20052;-65
2023/06/11 07:27:32;;;;;;;9.43;6.88;;;;;;;28.07;43.24;101418.06;5113885;28;20501;-67
2023/06/11 07:29:58;;;;;;;10.73;6.57;;;;;;;28.31;42.24;101429.44;5113661;28;20484;-66
2023/06/11 07:32:23;;;;;;;9.15;7.10;;;;;;;28.35;42.46;101422.88;5095429;28;20042;-67
2023/06/11 07:34:49;;;;;;;10.63;6.80;;;;;;;28.56;42.65;101427.16;5113473;28;20362;-63
2023/06/11 07:37:14;;;;;;;11.27;7.03;;;;;;;28.80;41.83;101430.38;5113600;28;20026;-63
2023/06/11 07:39:40;;;;;;;8.27;7.00;;;;;;;28.94;40.14;101426.88;5113565;28;20115;-62
2023/06/11 07:42:07;;;;;;;10.02;7.00;;;;;;;28.90;40.95;101426.16;5113431;28;20538;-63
2023/06/11 07:44:32;;;;;;;9.73;7.00;;;;;;;28.92;41.30;101423.38;5113446;28;20024;-63
2023/06/11 07:46:58;;;;;;;8.23;6.93;;;;;;;29.03;40.71;101426.38;5113560;28;20024;-63
2023/06/11 07:49:23;;;;;;;11.73;6.90;;;;;;;29.18;39.60;101425.50;5095267;28;20076;-63
2023/06/11 07:51:49;;;;;;;10.52;6.45;;;;;;;29.26;40.04;101424.19;5095000;28;20110;-63
2023/06/11 07:54:14;;;;;;;8.32;6.55;;;;;;;29.43;39.28;101424.06;5113296;28;20473;-63
2023/06/11 07:56:40;;;;;;;9.68;6.90;;;;;;;29.41;39.11;101420.56;5113514;28;20035;-64
2023/06/11 07:59:06;;;;;;;10.82;6.65;;;;;;;29.41;39.82;101423.28;5114231;28;20505;-63
2023/06/11 08:01:32;;;;;;;9.30;6.38;;;;;;;29.79;39.67;101426.47;5117515;28;20055;-63
2023/06/11 08:03:57;;;;;;;10.95;6.20;;;;;;;29.97;38.33;101419.00;5099293;28;20028;-63
2023/06/11 08:06:23;;;;;;;8.50;6.80;;;;;;;30.11;38.64;101423.63;5117305;28;20030;-63
2023/06/11 08:08:48;;;;;;;10.27;6.38;;;;;;;30.16;38.27;101419.66;5117725;28;20481;-63
2023/06/11 08:11:14;;;;;;;10.30;6.63;;;;;;;30.19;38.30;101426.75;5117437;28;20074;-63
2023/06/11 08:13:40;;;;;;;9.82;6.72;;;;;;;30.34;39.13;101423.09;5117365;28;20024;-63
2023/06/11 08:16:07;;;;;;;13.70;6.93;;;;;;;30.27;37.56;101424.44;5099238;28;20084;-63
2023/06/11 08:18:33;;;;;;;9.57;6.50;;;;;;;30.41;37.67;101420.88;5117370;28;20066;-63
2023/06/11 08:20:58;;;;;;;7.65;6.18;;;;;;;30.68;38.30;101421.81;5117050;28;20055;-63
2023/06/11 08:23:24;;;;;;;11.68;6.40;;;;;;;30.66;37.52;101415.59;5116833;28;20027;-63
2023/06/11 08:25:50;;;;;;;8.13;6.22;;;;;;;30.77;36.34;101417.66;5117328;28;20031;-63
2023/06/11 08:28:15;;;;;;;10.63;6.40;;;;;;;30.93;36.14;101418.41;5117253;28;20055;-62
2023/06/11 08:30:41;;;;;;;9.50;6.55;;;;;;;30.98;36.27;101420.81;5117304;28;20419;-63
2023/06/11 08:33:06;;;;;;;9.40;6.40;;;;;;;31.05;37.02;101415.81;5116976;28;20023;-63
2023/06/11 08:35:32;;;;;;;10.85;6.47;;;;;;;31.24;35.91;101416.34;5116852;28;20028;-63
2023/06/11 08:37:57;;;;;;;7.88;5.90;;;;;;;31.33;35.10;101412.16;5116742;28;20024;-63
2023/06/11 08:40:23;;;;;;;9.13;6.03;;;;;;;31.48;35.01;101415.69;5116760;28;20136;-62
2023/06/11 08:42:50;;;;;;;9.27;6.15;;;;;;;31.52;35.75;101418.16;5116647;28;20532;-62
2023/06/11 08:45:16;;;;;;;7.50;6.05;;;;;;;31.17;36.69;101407.69;5117022;28;20036;-62
2023/06/11 08:47:49;;;;;;;9.10;6.07;;;;;;;31.35;36.29;101421.16;5098593;28;20110;-62
2023/06/11 08:50:16;;;;;;;10.05;6.20;;;;;;;31.53;35.57;101410.81;5116849;28;20082;-61
2023/06/11 08:52:42;;;;;;;11.88;6.32;;;;;;;31.70;35.30;101404.19;5098362;28;20020;-63
2023/06/11 08:55:08;;;;;;;11.38;5.90;;;;;;;31.80;34.83;101406.16;5116509;28;20024;-63
2023/06/11 08:57:34;;;;;;;10.50;6.40;;;;;;;31.88;35.09;101414.75;5116432;28;20024;-62
2023/06/11 08:59:59;;;;;;;10.50;5.68;;;;;;;32.00;33.54;101396.63;5116677;28;20024;-63
2023/06/11 09:02:25;;;;;;;7.80;5.47;;;;;;;32.13;34.08;101397.50;5116682;28;20028;-62
2023/06/11 09:04:51;;;;;;;8.57;5.78;;;;;;;32.14;33.65;101403.84;5116230;28;20032;-63
2023/06/11 09:07:25;;;;;;;9.73;5.97;;;;;;;32.18;33.91;101397.16;5116262;28;20389;-66
2023/06/11 09:10:07;;;;;;;8.75;5.72;;;;;;;32.26;34.22;101393.88;5115928;28;20028;-63
2023/06/11 09:12:32;;;;;;;10.20;5.85;;;;;;;32.12;33.51;101392.09;5115835;28;20069;-63
2023/06/11 09:14:59;;;;;;;8.18;5.60;;;;;;;32.22;32.64;101395.09;5116112;28;20052;-63
2023/06/11 09:17:32;;;;;;;9.55;5.53;;;;;;;32.25;33.78;101394.84;5116282;28;20401;-63
2023/06/11 09:19:57;;;;;;;9.25;5.80;;;;;;;32.47;33.50;101396.97;5116068;28;20155;-63
2023/06/11 09:22:26;;;;;;;8.63;5.63;;;;;;;32.92;33.14;101391.84;5116060;28;20107;-63
2023/06/11 09:24:51;;;;;;;10.13;6.03;;;;;;;32.74;32.73;101385.84;5115850;28;20044;-64
2023/06/11 09:27:20;;;;;;;8.48;5.72;;;;;;;32.94;32.61;101385.28;5115920;28;20026;-63
2023/06/11 09:29:46;;;;;;;12.57;5.90;;;;;;;32.79;31.92;101394.59;5115964;28;20020;-63
2023/06/11 09:32:12;;;;;;;7.70;5.53;;;;;;;33.12;31.99;101374.78;5115842;28;20046;-63
2023/06/11 09:34:37;;;;;;;9.63;5.60;;;;;;;33.47;31.70;101390.44;5115782;28;20377;-63
2023/06/11 09:37:03;;;;;;;6.07;5.13;;;;;;;33.67;30.57;101386.16;5115250;28;20030;-63
2023/06/11 09:39:35;;;;;;;7.10;5.40;;;;;;;33.63;30.31;101393.72;5115623;28;20499;-61
2023/06/11 09:42:12;;;;;;;7.68;5.47;;;;;;;33.67;30.84;101394.38;5115561;28;20061;-63
2023/06/11 09:44:49;;;;;;;8.00;5.80;;;;;;;33.86;30.11;101387.31;5115727;28;20023;-64
2023/06/11 09:47:17;;;;;;;13.23;5.50;;;;;;;33.94;30.54;101392.19;5096681;28;20450;-64
2023/06/11 09:49:44;;;;;;;8.90;5.70;;;;;;;33.77;29.65;101387.16;5096512;28;20031;-63
2023/06/11 09:52:10;;;;;;;8.80;5.60;;;;;;;33.95;29.11;101382.97;5080399;28;20036;-63
2023/06/11 09:54:38;;;;;;;7.82;5.18;;;;;;;33.97;29.47;101394.72;5097220;28;20020;-63
2023/06/11 09:57:04;;;;;;;10.52;5.40;;;;;;;33.99;29.62;101392.72;5115198;28;20489;-60
2023/06/11 09:59:31;;;;;;;7.68;5.07;;;;;;;33.81;30.08;101389.53;5115162;28;20031;-61
2023/06/11 10:01:57;;;;;;;8.98;5.18;;;;;;;33.94;30.15;101394.06;5115044;28;20035;-62
2023/06/11 10:04:22;;;;;;;11.05;5.50;;;;;;;33.86;29.20;101390.03;5114968;28;20024;-61
2023/06/11 10:06:50;;;;;;;7.00;5.35;;;;;;;33.71;29.62;101398.63;5115097;28;20020;-61
2023/06/11 10:09:16;;;;;;;6.32;5.07;;;;;;;33.70;29.24;101385.88;5113701;28;20489;-62
2023/06/11 10:11:44;;;;;;;6.25;4.90;;;;;;;34.13;28.51;101394.34;5114908;28;20016;-61
2023/06/11 10:14:12;;;;;;;7.95;4.78;;;;;;;34.09;28.99;101390.13;5115291;28;20028;-62
2023/06/11 10:16:38;;;;;;;10.35;5.13;;;;;;;34.39;28.38;101386.81;5115136;28;20103;-61
2023/06/11 10:19:08;;;;;;;6.60;5.05;;;;;;;34.48;28.42;101391.56;5115233;28;20110;-61
2023/06/11 10:21:49;;;;;;;7.20;5.07;;;;;;;34.27;28.49;101388.66;5113924;28;20151;-61
2023/06/11 10:24:26;;;;;;;8.05;4.97;;;;;;;33.94;29.15;101397.69;5113601;28;20036;-62
2023/06/11 10:27:10;;;;;;;7.68;4.97;;;;;;;33.96;28.14;101395.72;5113466;28;20473;-61
2023/06/11 10:29:46;;;;;;;6.55;4.88;;;;;;;34.12;28.35;101390.75;5113075;28;20107;-61
2023/06/11 10:32:19;;;;;;;7.72;5.00;;;;;;;34.35;28.52;101385.31;5112637;28;20027;-61
2023/06/11 10:34:48;;;;;;;10.90;5.47;;;;;;;34.50;27.46;101384.06;5112599;28;20028;-62
2023/06/11 10:37:13;;;;;;;5.53;4.93;;;;;;;34.53;27.74;101393.94;5112446;28;20447;-62
2023/06/11 10:39:51;;;;;;;8.85;5.20;;;;;;;34.64;28.35;101386.53;5112662;28;20102;-63
2023/06/11 10:42:24;;;;;;;6.88;5.25;;;;;;;34.59;29.26;101382.44;5113608;28;20042;-64
2023/06/11 10:44:51;;;;;;;10.27;5.07;;;;;;;34.66;28.18;101378.19;5114639;28;20035;-62
2023/06/11 10:47:17;;;;;;;11.27;5.13;;;;;;;34.81;27.47;101387.91;5096336;28;20028;-62
2023/06/11 10:49:42;;;;;;;6.28;4.70;;;;;;;34.76;27.86;101379.19;5114180;28;20050;-61
2023/06/11 10:52:08;;;;;;;7.22;4.65;;;;;;;34.76;25.68;101376.44;5114091;28;20020;-61
2023/06/11 10:54:34;;;;;;;6.93;4.88;;;;;;;35.03;26.03;101378.78;5114477;28;20024;-64
2023/06/11 10:57:01;;;;;;;6.25;4.18;;;;;;;35.03;24.75;101377.88;5114283;28;20465;-60
2023/06/11 10:59:27;;;;;;;9.80;4.28;;;;;;;34.99;24.24;101387.38;5114165;28;20111;-60
2023/06/11 11:01:53;;;;;;;8.27;4.50;;;;;;;34.87;24.98;101379.16;5114076;28;20110;-60
2023/06/11 11:04:21;;;;;;;7.70;4.40;;;;;;;34.99;25.14;101380.06;5113997;28;20059;-60
2023/06/11 11:06:47;;;;;;;5.95;4.47;;;;;;;35.01;25.54;101379.91;5113801;28;20507;-61
2023/06/11 11:09:12;;;;;;;6.55;4.30;;;;;;;34.87;25.91;101370.94;5113858;28;20027;-61
2023/06/11 11:11:41;;;;;;;5.40;4.07;;;;;;;35.03;25.56;101380.63;5113736;28;20031;-62
2023/06/11 11:14:07;;;;;;;5.15;4.07;;;;;;;35.07;26.15;101376.63;5113773;28;20024;-60
2023/06/11 11:16:33;;;;;;;6.50;4.15;;;;;;;35.16;26.08;101372.22;5114314;28;20046;-62